Aérodrome :
LOGIN :

S'inscrire | Disclaimer

   EN    FR    IT 

 










Légende :    VFR   VFR Marginal   IFR   IFR Intensif   IFR Très Intensif
Visi : 
Plafond : 
>= 8 km
>= 3000ft
5 à 8 km
1000 à 3000 ft
1500m à 5 km
500 à 1000 ft
800 à 1500m
200 à 500 ft
< 800m
< 200 ft
Symboles :   Orages  Brouillard  Fortes neiges  Fortes précipitations  Vent > 20 kt
SIGMETs :   Divers  Orages  Givrage  Turbulence  Onde Orograph.  Cendres Volcan.







- Altitude de l'aérodrome : 56 ft
- Code IATA : BZR
- Voir les cartes d'approche


LFMU - Beziers / Vias

DERNIER METAR :
  • 221430Z AUTO 27017KT 8000 NSC 07/M02 Q1006 TEMPO 30012G22KT

METARs EXPIRÉS :
  • 221400Z AUTO 27018KT 8000 NSC 06/M03 Q1007 TEMPO 30012G22KT
  • 221330Z AUTO 32012KT CAVOK 07/M05 Q1007 NOSIG
  • 221300Z AUTO 33011KT CAVOK 07/M05 Q1007 NOSIG
  • 221230Z AUTO 33013KT CAVOK 07/M05 Q1007 NOSIG
  • 221200Z AUTO 33011KT 290V360 CAVOK 07/M05 Q1007 NOSIG
  • 221130Z AUTO 31013KT 280V340 CAVOK 06/M05 Q1007 NOSIG

TAF TAF LFMU
Valide du 22 à 15h jusqu'au 23 à 15h UTC


221400Z 2215/2315 30012KT 9999 FEW040
TEMPO 2215/2218 30012G22KT
ATIS : +33 4 67 90 88 88
Pas de NOTAMs connus pour ce terrain.
1 SIGMET publié pour la FIR Marseille (LFMM) :
 
Turbulence forte
LFMM SIGMET 6 VALID 221100/221500 LFPW
LFMM MARSEILLE FIR/UIR SEV TURB FCST W OF LINE N4200 E00415 - N4345 E00245 SFC/FL050 STNR WKN=



MET'MAP, la Météo Aéronautique d'un coup d'oeil ! - Copyright ORBIFLY Décembre 2007 - Disclaimer

ORBIFLY MET'MAP TEAM :

Programmation & Développement : Alexandra Zaïnal
Conception & Développement : Baudouin d'Aumeries
Co-Programmation & Développement : Marc-Olivier Méhu
Soutien technique & logistique : Manuel Goepfert

Contact : metmap@orbifly.com




SOURCES & CREDITS :

   NOAA